createdAt,value
2023-03-10T00:02:11.859Z,93327.50
2023-03-10T00:05:20.974Z,93314.13
2023-03-10T00:08:29.420Z,93322.84
2023-03-10T00:11:38.002Z,93315.97
2023-03-10T00:14:46.421Z,93309.28
2023-03-10T00:17:56.010Z,93311.31
2023-03-10T00:21:04.945Z,93296.31
2023-03-10T00:24:13.492Z,93290.81
2023-03-10T00:27:21.864Z,93284.53
2023-03-10T00:30:35.112Z,93270.97
2023-03-10T00:33:45.787Z,93268.72
2023-03-10T00:36:54.198Z,93267.31
2023-03-10T00:40:03.265Z,93257.78
2023-03-10T00:43:11.362Z,93260.44
2023-03-10T00:46:21.145Z,93248.28
2023-03-10T00:49:31.117Z,93249.50
2023-03-10T00:52:39.510Z,93238.56
2023-03-10T00:56:00.270Z,93239.56
2023-03-10T00:59:08.684Z,93231.28
2023-03-10T01:02:17.482Z,93227.41
2023-03-10T01:05:29.009Z,93221.94
2023-03-10T01:08:37.572Z,93217.47
2023-03-10T01:11:46.599Z,93206.75
2023-03-10T01:14:55.126Z,93202.09
2023-03-10T01:18:04.825Z,93193.59
2023-03-10T01:21:21.171Z,93174.59
2023-03-10T01:24:29.344Z,93166.69
2023-03-10T01:27:37.440Z,93163.81
2023-03-10T01:30:48.615Z,93170.34
2023-03-10T01:33:57.006Z,93154.53
2023-03-10T01:37:06.581Z,93150.88
2023-03-10T01:40:18.773Z,93137.72
2023-03-10T01:43:33.656Z,93135.91
2023-03-10T01:47:00.098Z,93133.44
2023-03-10T01:50:16.947Z,93129.84
2023-03-10T01:53:29.239Z,93106.38
2023-03-10T01:56:39.527Z,93106.56
2023-03-10T01:59:50.164Z,93099.69
2023-03-10T02:03:08.620Z,93100.28
2023-03-10T02:06:21.221Z,93097.66
2023-03-10T02:09:38.387Z,93087.75
2023-03-10T02:12:46.565Z,93073.59
2023-03-10T02:16:03.447Z,93063.88
2023-03-10T02:19:30.740Z,93059.59
2023-03-10T02:22:40.620Z,93056.16
2023-03-10T02:26:01.807Z,93054.34
2023-03-10T02:29:21.705Z,93046.03
2023-03-10T02:32:34.951Z,93045.03
2023-03-10T02:35:43.155Z,93034.88
2023-03-10T02:38:55.689Z,93033.91
2023-03-10T02:42:04.300Z,93029.47
2023-03-10T02:45:14.172Z,93025.22
2023-03-10T02:48:28.598Z,93014.88
2023-03-10T02:51:41.085Z,93010.84
2023-03-10T02:54:52.870Z,92997.84
2023-03-10T02:58:02.515Z,92997.44
2023-03-10T03:01:12.534Z,92996.78
2023-03-10T03:04:23.143Z,92992.69
2023-03-10T03:07:32.023Z,92992.84
2023-03-10T03:10:41.184Z,92997.47
2023-03-10T03:13:50.983Z,92992.81
2023-03-10T03:17:00.610Z,92991.63
2023-03-10T03:20:14.525Z,92992.03
2023-03-10T03:23:24.646Z,92991.00
2023-03-10T03:26:33.954Z,92988.19
2023-03-10T03:29:50.096Z,92980.88
2023-03-10T03:33:03.592Z,92976.59
2023-03-10T03:36:13.690Z,92969.47
2023-03-10T03:39:22.059Z,92973.94
2023-03-10T03:42:34.621Z,92980.38
2023-03-10T03:45:42.844Z,92980.53
2023-03-10T03:48:52.411Z,92972.63
2023-03-10T03:52:01.023Z,92976.88
2023-03-10T03:55:11.420Z,93000.59
2023-03-10T03:58:20.290Z,92994.69
2023-03-10T04:01:29.103Z,93001.03
2023-03-10T04:04:40.549Z,93001.47
2023-03-10T04:07:49.881Z,92996.44
2023-03-10T04:10:59.542Z,92981.44
2023-03-10T04:14:11.049Z,92986.66
2023-03-10T04:17:19.349Z,93002.56
2023-03-10T04:20:29.575Z,93033.44
2023-03-10T04:23:40.149Z,93027.19
2023-03-10T04:26:48.346Z,93049.41
2023-03-10T04:29:57.021Z,93085.28
2023-03-10T04:33:05.437Z,93064.03
2023-03-10T04:36:18.425Z,93073.66
2023-03-10T04:39:29.151Z,93068.56
2023-03-10T04:42:37.678Z,93071.88
2023-03-10T04:45:45.854Z,93066.94
2023-03-10T04:48:55.848Z,93072.34
2023-03-10T04:52:05.624Z,93076.81
2023-03-10T04:55:14.982Z,93071.53
2023-03-10T04:58:24.224Z,93075.28
2023-03-10T05:01:33.307Z,93080.03
2023-03-10T05:04:45.043Z,93082.09
2023-03-10T05:07:54.573Z,93074.09
2023-03-10T05:11:07.120Z,93079.19
2023-03-10T05:14:16.541Z,93073.84
2023-03-10T05:17:25.096Z,93062.34
2023-03-10T05:20:33.527Z,93068.63
2023-03-10T05:23:43.909Z,93075.28
2023-03-10T05:26:54.515Z,93067.81
2023-03-10T05:30:05.086Z,93065.28
2023-03-10T05:33:13.304Z,93074.50
2023-03-10T05:36:22.531Z,93079.69
2023-03-10T05:39:33.328Z,93079.81
2023-03-10T05:42:45.171Z,93081.09
2023-03-10T05:45:58.012Z,93075.78
2023-03-10T05:49:07.883Z,93080.72
2023-03-10T05:52:16.473Z,93074.28
2023-03-10T05:55:28.678Z,93079.59
2023-03-10T05:58:37.735Z,93073.50
2023-03-10T06:01:46.218Z,93072.13
2023-03-10T06:04:54.339Z,93072.94
2023-03-10T06:08:02.400Z,93066.97
2023-03-10T06:11:11.810Z,93068.47
2023-03-10T06:14:20.013Z,93058.31
2023-03-10T06:17:28.205Z,93056.56
2023-03-10T06:20:36.296Z,93051.75
2023-03-10T06:23:44.395Z,93045.75
2023-03-10T06:26:53.801Z,93044.38
2023-03-10T06:30:02.149Z,93042.31
2023-03-10T06:33:10.198Z,93041.50
2023-03-10T06:36:19.514Z,93036.91
2023-03-10T06:39:28.824Z,93040.59
2023-03-10T06:42:38.203Z,93036.34
2023-03-10T06:45:48.344Z,93033.09
2023-03-10T06:48:56.991Z,93025.50
2023-03-10T06:52:05.696Z,93027.78
2023-03-10T06:55:15.917Z,93027.44
2023-03-10T06:58:25.485Z,93043.94
2023-03-10T07:01:35.349Z,93043.34
2023-03-10T07:04:43.636Z,93027.44
2023-03-10T07:07:52.165Z,93008.69
2023-03-10T07:11:00.274Z,92986.56
2023-03-10T07:14:09.889Z,92976.97
2023-03-10T07:17:18.166Z,92954.25
2023-03-10T07:20:26.971Z,92947.88
2023-03-10T07:23:35.059Z,92953.47
2023-03-10T07:26:46.875Z,92936.78
2023-03-10T07:29:56.271Z,92955.00
2023-03-10T07:33:04.703Z,92947.47
2023-03-10T07:36:15.977Z,92950.69
2023-03-10T07:39:24.456Z,92956.31
2023-03-10T07:42:32.637Z,92952.31
2023-03-10T07:45:42.397Z,92951.34
2023-03-10T07:48:52.600Z,92951.63
2023-03-10T07:52:00.725Z,92937.31
2023-03-10T07:55:10.654Z,92935.41
2023-03-10T07:58:19.052Z,92945.34
2023-03-10T08:01:28.626Z,92940.34
2023-03-10T08:04:37.068Z,92934.59
2023-03-10T08:07:45.490Z,92948.22
2023-03-10T08:11:03.739Z,92954.59
2023-03-10T08:14:12.121Z,92952.13
2023-03-10T08:17:21.892Z,92941.44
2023-03-10T08:20:30.145Z,92942.03
2023-03-10T08:23:39.506Z,92941.00
2023-03-10T08:26:47.886Z,92936.88
2023-03-10T08:29:56.020Z,92934.38
2023-03-10T08:33:07.649Z,92942.03
2023-03-10T08:36:18.736Z,92933.28
2023-03-10T08:39:27.776Z,92903.34
2023-03-10T08:42:37.020Z,92898.25
2023-03-10T08:45:45.131Z,92898.94
2023-03-10T08:48:55.696Z,92897.44
2023-03-10T08:52:04.381Z,92901.59
2023-03-10T08:55:12.968Z,92893.09
2023-03-10T08:58:21.097Z,92891.94
2023-03-10T09:01:32.095Z,92884.97
2023-03-10T09:04:41.692Z,92877.75
2023-03-10T09:07:49.790Z,92882.31
2023-03-10T09:10:57.921Z,92892.41
2023-03-10T09:14:06.568Z,92894.41
2023-03-10T09:17:14.699Z,92895.28
2023-03-10T09:20:28.262Z,92898.25
2023-03-10T09:23:37.756Z,92910.84
2023-03-10T09:26:45.967Z,92901.81
2023-03-10T09:29:54.114Z,92895.72
2023-03-10T09:33:02.252Z,92893.09
2023-03-10T09:36:12.013Z,92882.44
2023-03-10T09:39:20.231Z,92881.91
2023-03-10T09:42:38.783Z,92899.78
2023-03-10T09:45:56.675Z,92885.53
2023-03-10T09:49:16.973Z,92897.78
2023-03-10T09:52:38.331Z,92885.84
2023-03-10T09:55:48.524Z,92881.91
2023-03-10T09:59:05.449Z,92881.78
2023-03-10T10:02:24.633Z,92881.00
2023-03-10T10:05:35.528Z,92884.97
2023-03-10T10:09:03.636Z,92890.97
2023-03-10T10:12:15.084Z,92891.13
2023-03-10T10:15:27.946Z,92898.03
2023-03-10T10:18:42.905Z,92918.66
2023-03-10T10:22:02.768Z,92918.91
2023-03-10T10:25:20.786Z,92931.06
2023-03-10T10:28:41.855Z,92943.38
2023-03-10T10:32:10.513Z,92955.13
2023-03-10T10:35:27.140Z,92961.47
2023-03-10T10:38:36.100Z,92993.16
2023-03-10T10:41:45.828Z,93036.13
2023-03-10T10:44:56.589Z,93044.44
2023-03-10T10:48:06.059Z,93050.16
2023-03-10T10:51:24.468Z,93082.88
2023-03-10T10:54:40.148Z,93096.44
2023-03-10T10:57:59.777Z,93084.84
2023-03-10T11:01:12.495Z,93061.09
2023-03-10T11:04:21.769Z,93031.69
2023-03-10T11:07:29.919Z,93013.22
2023-03-10T11:10:39.080Z,93007.88
2023-03-10T11:14:14.435Z,93014.50
2023-03-10T11:17:31.501Z,93003.47
2023-03-10T11:20:52.659Z,92998.34
2023-03-10T11:24:14.284Z,92988.69
2023-03-10T11:27:38.667Z,92987.88
2023-03-10T11:30:57.885Z,92984.81
2023-03-10T11:34:21.166Z,92995.44
2023-03-10T11:37:36.495Z,92988.69
2023-03-10T11:40:49.152Z,92976.69
2023-03-10T11:44:01.620Z,92963.88
2023-03-10T11:47:23.991Z,92961.38
2023-03-10T11:50:46.818Z,92954.53
2023-03-10T11:53:58.903Z,92955.28
2023-03-10T11:57:17.159Z,92942.88
2023-03-10T12:00:34.777Z,92950.50
2023-03-10T12:03:54.965Z,92938.19
2023-03-10T12:07:16.007Z,92934.97
2023-03-10T12:10:25.855Z,92917.13
2023-03-10T12:13:45.918Z,92915.31
2023-03-10T12:16:56.887Z,92922.56
2023-03-10T12:20:30.001Z,92904.38
2023-03-10T12:23:42.946Z,92894.03
2023-03-10T12:27:04.715Z,92895.97
2023-03-10T12:30:50.991Z,92884.84
2023-03-10T12:34:15.457Z,92889.31
2023-03-10T12:37:25.030Z,92881.56
2023-03-10T12:40:54.351Z,92901.25
2023-03-10T12:44:08.343Z,92873.22
2023-03-10T12:47:44.250Z,92887.38
2023-03-10T12:50:59.340Z,92891.31
2023-03-10T12:54:42.666Z,92892.41
2023-03-10T12:58:03.852Z,92884.97
2023-03-10T13:01:21.472Z,92888.69
2023-03-10T13:04:30.208Z,92889.22
2023-03-10T13:07:38.859Z,92888.50
2023-03-10T13:10:55.836Z,92889.81
2023-03-10T13:14:12.260Z,92889.84
2023-03-10T13:17:26.489Z,92903.72
2023-03-10T13:20:38.832Z,92898.88
2023-03-10T13:23:47.054Z,92903.16
2023-03-10T13:27:15.311Z,92915.91
2023-03-10T13:30:26.662Z,92903.28
2023-03-10T13:33:43.019Z,92921.06
2023-03-10T13:37:03.450Z,92933.63
2023-03-10T13:40:18.051Z,92948.66
2023-03-10T13:43:37.881Z,92937.56
2023-03-10T13:46:50.816Z,92960.47
2023-03-10T13:50:03.285Z,92946.81
2023-03-10T13:53:26.398Z,92956.28
2023-03-10T13:56:40.207Z,92947.59
2023-03-10T13:59:50.661Z,92956.38
2023-03-10T14:02:59.294Z,92943.53
2023-03-10T14:06:14.834Z,92958.06
2023-03-10T14:09:25.172Z,92955.09
2023-03-10T14:12:40.088Z,92959.78
2023-03-10T14:15:56.623Z,92959.88
2023-03-10T14:19:05.027Z,92960.59
2023-03-10T14:22:30.384Z,92948.03
2023-03-10T14:25:42.495Z,92967.94
2023-03-10T14:28:50.635Z,92951.63
2023-03-10T14:32:00.217Z,92967.94
2023-03-10T14:35:13.029Z,92971.06
2023-03-10T14:38:21.285Z,92956.09
2023-03-10T14:41:31.310Z,92943.84
2023-03-10T14:44:39.634Z,92956.53
2023-03-10T14:47:49.913Z,92960.88
2023-03-10T14:50:58.159Z,92933.78
2023-03-10T14:54:17.611Z,92957.75
2023-03-10T14:57:28.298Z,92952.91
2023-03-10T15:00:37.160Z,92957.00
2023-03-10T15:03:49.027Z,92954.16
2023-03-10T15:06:57.258Z,92961.88
2023-03-10T15:10:11.462Z,92986.78
2023-03-10T15:13:28.629Z,92981.53
2023-03-10T15:16:36.884Z,92998.97
2023-03-10T15:19:46.407Z,93019.66
2023-03-10T15:22:54.679Z,93017.03
2023-03-10T15:26:09.412Z,93019.69
2023-03-10T15:29:20.027Z,93029.31
2023-03-10T15:32:28.229Z,93014.00
2023-03-10T15:35:38.115Z,93012.25
2023-03-10T15:38:46.554Z,93025.28
2023-03-10T15:41:54.701Z,93032.00
2023-03-10T15:45:04.876Z,93015.78
2023-03-10T15:48:14.010Z,93032.72
2023-03-10T15:51:23.868Z,93025.13
2023-03-10T15:54:34.914Z,93027.56
2023-03-10T15:57:43.333Z,93044.84
2023-03-10T16:00:52.048Z,93034.03
2023-03-10T16:04:01.909Z,93034.59
2023-03-10T16:07:12.541Z,93036.53
2023-03-10T16:10:22.306Z,93036.44
2023-03-10T16:13:30.481Z,93032.75
2023-03-10T16:16:38.830Z,93037.38
2023-03-10T16:19:47.139Z,93044.97
2023-03-10T16:22:56.583Z,93036.09
2023-03-10T16:26:14.347Z,93062.69
2023-03-10T16:29:22.720Z,93053.16
2023-03-10T16:32:31.220Z,93056.84
2023-03-10T16:35:39.899Z,93039.19
2023-03-10T16:38:50.480Z,93058.91
2023-03-10T16:41:58.720Z,93066.38
2023-03-10T16:45:09.180Z,93068.81
2023-03-10T16:48:18.447Z,93070.44
2023-03-10T16:51:29.953Z,93081.34
2023-03-10T16:54:39.956Z,93086.31
2023-03-10T16:57:49.835Z,93097.41
2023-03-10T17:00:57.934Z,93103.03
2023-03-10T17:04:06.165Z,93116.47
2023-03-10T17:07:14.484Z,93132.88
2023-03-10T17:10:26.549Z,93110.16
2023-03-10T17:13:35.031Z,93117.88
2023-03-10T17:16:44.665Z,93108.28
2023-03-10T17:19:52.866Z,93122.75
2023-03-10T17:23:01.231Z,93133.19
2023-03-10T17:26:11.961Z,93133.56
2023-03-10T17:29:20.505Z,93137.66
2023-03-10T17:32:28.710Z,93152.28
2023-03-10T17:35:38.599Z,93158.66
2023-03-10T17:38:46.801Z,93173.72
2023-03-10T17:41:56.467Z,93161.84
2023-03-10T17:45:06.836Z,93162.66
2023-03-10T17:48:15.081Z,93181.28
2023-03-10T17:51:26.423Z,93177.41
2023-03-10T17:54:34.954Z,93181.72
2023-03-10T17:57:44.457Z,93188.34
2023-03-10T18:00:52.579Z,93189.88
2023-03-10T18:04:03.387Z,93197.78
2023-03-10T18:07:11.543Z,93202.41
2023-03-10T18:10:19.789Z,93200.00
2023-03-10T18:13:29.972Z,93196.38
2023-03-10T18:16:41.535Z,93163.50
2023-03-10T18:19:53.510Z,93191.97
2023-03-10T18:23:01.696Z,93186.63
2023-03-10T18:26:14.434Z,93186.16
2023-03-10T18:29:24.208Z,93191.44
2023-03-10T18:32:34.050Z,93184.16
2023-03-10T18:35:45.698Z,93193.47
2023-03-10T18:38:54.452Z,93192.84
2023-03-10T18:42:02.518Z,93213.16
2023-03-10T18:45:13.375Z,93201.78
2023-03-10T18:48:25.288Z,93203.78
2023-03-10T18:51:33.630Z,93227.13
2023-03-10T18:54:41.913Z,93215.59
2023-03-10T18:57:50.084Z,93217.06
2023-03-10T19:01:00.055Z,93229.75
2023-03-10T19:04:08.614Z,93219.47
2023-03-10T19:07:17.554Z,93222.88
2023-03-10T19:10:26.564Z,93227.59
2023-03-10T19:13:35.986Z,93223.00
2023-03-10T19:16:47.319Z,93204.75
2023-03-10T19:19:55.540Z,93190.13
2023-03-10T19:23:04.601Z,93193.03
2023-03-10T19:26:13.541Z,93189.06
2023-03-10T19:29:22.020Z,93186.00
2023-03-10T19:32:32.493Z,93204.31
2023-03-10T19:35:41.193Z,93206.75
2023-03-10T19:38:50.805Z,93213.00
2023-03-10T19:41:59.540Z,93215.47
2023-03-10T19:45:10.626Z,93200.41
2023-03-10T19:48:20.575Z,93212.63
2023-03-10T19:51:30.374Z,93209.28
2023-03-10T19:54:41.263Z,93202.44
2023-03-10T19:57:51.074Z,93199.75
2023-03-10T20:01:00.438Z,93204.78
2023-03-10T20:04:13.160Z,93199.53
2023-03-10T20:07:21.396Z,93204.38
2023-03-10T20:10:30.114Z,93210.72
2023-03-10T20:13:38.702Z,93221.88
2023-03-10T20:16:47.348Z,93206.03
2023-03-10T20:19:57.439Z,93215.81
2023-03-10T20:23:06.175Z,93219.47
2023-03-10T20:26:15.651Z,93198.97
2023-03-10T20:29:24.212Z,93199.22
2023-03-10T20:32:32.604Z,93195.88
2023-03-10T20:35:42.834Z,93203.75
2023-03-10T20:38:51.023Z,93207.06
2023-03-10T20:41:59.785Z,93187.56
2023-03-10T20:45:10.855Z,93192.03
2023-03-10T20:48:19.741Z,93203.66
2023-03-10T20:51:29.635Z,93199.53
2023-03-10T20:54:38.440Z,93198.38
2023-03-10T20:57:47.870Z,93196.81
2023-03-10T21:00:56.129Z,93207.47
2023-03-10T21:04:04.420Z,93212.69
2023-03-10T21:07:15.004Z,93223.81
2023-03-10T21:10:25.961Z,93219.03
2023-03-10T21:13:34.392Z,93218.00
2023-03-10T21:16:42.871Z,93227.94
2023-03-10T21:19:52.181Z,93252.31
2023-03-10T21:23:02.537Z,93268.72
2023-03-10T21:26:13.472Z,93228.56
2023-03-10T21:29:21.557Z,93226.72
2023-03-10T21:32:30.077Z,93248.03
2023-03-10T21:35:40.460Z,93268.78
2023-03-10T21:38:51.013Z,93295.91
2023-03-10T21:41:59.370Z,93298.47
2023-03-10T21:45:10.536Z,93321.63
2023-03-10T21:48:18.649Z,93352.94
2023-03-10T21:51:27.988Z,93372.88
2023-03-10T21:54:37.581Z,93401.69
2023-03-10T21:57:46.129Z,93422.53
2023-03-10T22:00:56.262Z,93414.13
2023-03-10T22:04:05.440Z,93411.50
2023-03-10T22:07:13.738Z,93405.66
2023-03-10T22:10:23.534Z,93427.34
2023-03-10T22:13:31.635Z,93423.16
2023-03-10T22:16:39.921Z,93428.06
2023-03-10T22:19:50.452Z,93448.38
2023-03-10T22:22:58.808Z,93443.16
2023-03-10T22:26:09.535Z,93450.88
2023-03-10T22:29:18.047Z,93464.59
2023-03-10T22:32:26.457Z,93455.72
2023-03-10T22:35:34.922Z,93469.13
2023-03-10T22:38:43.056Z,93480.13
2023-03-10T22:41:53.253Z,93474.28
2023-03-10T22:45:02.876Z,93473.13
2023-03-10T22:48:11.080Z,93481.84
2023-03-10T22:51:21.050Z,93474.56
2023-03-10T22:54:29.528Z,93477.00
2023-03-10T22:57:39.229Z,93491.84
2023-03-10T23:00:47.536Z,93495.69
2023-03-10T23:03:55.732Z,93511.09
2023-03-10T23:07:04.520Z,93501.28
2023-03-10T23:10:19.558Z,93495.56
2023-03-10T23:13:29.152Z,93515.47
2023-03-10T23:16:38.397Z,93548.97
2023-03-10T23:19:51.099Z,93548.00
2023-03-10T23:23:02.557Z,93576.56
2023-03-10T23:26:12.729Z,93607.72
2023-03-10T23:29:23.223Z,93602.81
2023-03-10T23:32:31.667Z,93632.03
2023-03-10T23:35:40.036Z,93621.91
2023-03-10T23:38:48.684Z,93611.94
2023-03-10T23:41:57.459Z,93628.34
2023-03-10T23:45:11.793Z,93628.34
2023-03-10T23:48:21.640Z,93622.09
2023-03-10T23:51:30.791Z,93644.13
2023-03-10T23:54:38.902Z,93652.72
2023-03-10T23:57:47.035Z,93654.97
